sensor_id;sensor_type;location;lat;lon;timestamp;P1;durP1;ratioP1;P2;durP2;ratioP2
37407;SDS011;24866;50.248;8.252;2022-09-09T00:01:25;4.70;;;1.48;;
37407;SDS011;24866;50.248;8.252;2022-09-09T00:04:05;2.83;;;0.93;;
37407;SDS011;24866;50.248;8.252;2022-09-09T00:06:43;5.88;;;1.42;;
37407;SDS011;24866;50.248;8.252;2022-09-09T00:09:18;4.93;;;1.02;;
37407;SDS011;24866;50.248;8.252;2022-09-09T00:11:51;5.40;;;1.43;;
37407;SDS011;24866;50.248;8.252;2022-09-09T00:14:26;4.70;;;1.42;;
37407;SDS011;24866;50.248;8.252;2022-09-09T00:17:08;4.05;;;0.98;;
37407;SDS011;24866;50.248;8.252;2022-09-09T00:19:44;4.85;;;1.20;;
37407;SDS011;24866;50.248;8.252;2022-09-09T00:22:19;3.92;;;1.02;;
37407;SDS011;24866;50.248;8.252;2022-09-09T00:24:52;3.50;;;0.98;;
37407;SDS011;24866;50.248;8.252;2022-09-09T00:27:25;3.38;;;1.30;;
37407;SDS011;24866;50.248;8.252;2022-09-09T00:30:00;3.38;;;1.02;;
37407;SDS011;24866;50.248;8.252;2022-09-09T00:32:41;4.93;;;1.27;;
37407;SDS011;24866;50.248;8.252;2022-09-09T00:35:16;3.10;;;0.93;;
37407;SDS011;24866;50.248;8.252;2022-09-09T00:37:51;5.13;;;1.05;;
37407;SDS011;24866;50.248;8.252;2022-09-09T00:40:26;6.07;;;1.17;;
37407;SDS011;24866;50.248;8.252;2022-09-09T00:43:10;4.47;;;1.38;;
37407;SDS011;24866;50.248;8.252;2022-09-09T00:46:09;4.82;;;0.88;;
37407;SDS011;24866;50.248;8.252;2022-09-09T00:49:08;2.47;;;0.68;;
37407;SDS011;24866;50.248;8.252;2022-09-09T00:51:54;5.93;;;1.25;;
37407;SDS011;24866;50.248;8.252;2022-09-09T00:54:38;4.47;;;1.27;;
37407;SDS011;24866;50.248;8.252;2022-09-09T00:57:18;3.28;;;0.80;;
37407;SDS011;24866;50.248;8.252;2022-09-09T01:00:15;4.13;;;1.30;;
37407;SDS011;24866;50.248;8.252;2022-09-09T01:02:53;4.28;;;1.20;;
37407;SDS011;24866;50.248;8.252;2022-09-09T01:05:33;6.80;;;1.30;;
37407;SDS011;24866;50.248;8.252;2022-09-09T01:08:09;4.15;;;1.02;;
37407;SDS011;24866;50.248;8.252;2022-09-09T01:10:49;4.40;;;1.10;;
37407;SDS011;24866;50.248;8.252;2022-09-09T01:13:22;4.57;;;0.93;;
37407;SDS011;24866;50.248;8.252;2022-09-09T01:15:54;4.07;;;1.10;;
37407;SDS011;24866;50.248;8.252;2022-09-09T01:18:27;4.57;;;1.30;;
37407;SDS011;24866;50.248;8.252;2022-09-09T01:21:04;5.70;;;1.50;;
37407;SDS011;24866;50.248;8.252;2022-09-09T01:26:43;4.82;;;1.60;;
37407;SDS011;24866;50.248;8.252;2022-09-09T01:29:14;3.85;;;1.50;;
37407;SDS011;24866;50.248;8.252;2022-09-09T01:31:52;5.95;;;1.65;;
37407;SDS011;24866;50.248;8.252;2022-09-09T01:34:23;5.72;;;1.73;;
37407;SDS011;24866;50.248;8.252;2022-09-09T01:36:57;5.57;;;1.48;;
37407;SDS011;24866;50.248;8.252;2022-09-09T01:39:32;3.58;;;1.30;;
37407;SDS011;24866;50.248;8.252;2022-09-09T01:42:06;6.25;;;1.30;;
37407;SDS011;24866;50.248;8.252;2022-09-09T01:44:38;4.25;;;1.60;;
37407;SDS011;24866;50.248;8.252;2022-09-09T01:47:08;4.65;;;1.23;;
37407;SDS011;24866;50.248;8.252;2022-09-09T01:49:38;5.28;;;1.35;;
37407;SDS011;24866;50.248;8.252;2022-09-09T01:52:08;5.20;;;1.50;;
37407;SDS011;24866;50.248;8.252;2022-09-09T01:54:38;4.50;;;1.25;;
37407;SDS011;24866;50.248;8.252;2022-09-09T01:57:11;9.02;;;1.67;;
37407;SDS011;24866;50.248;8.252;2022-09-09T01:59:54;6.18;;;1.40;;
37407;SDS011;24866;50.248;8.252;2022-09-09T02:02:30;5.47;;;1.77;;
37407;SDS011;24866;50.248;8.252;2022-09-09T02:05:08;5.95;;;1.63;;
37407;SDS011;24866;50.248;8.252;2022-09-09T02:07:46;6.68;;;1.70;;
37407;SDS011;24866;50.248;8.252;2022-09-09T02:10:20;2.95;;;1.40;;
37407;SDS011;24866;50.248;8.252;2022-09-09T02:12:53;4.47;;;1.48;;
37407;SDS011;24866;50.248;8.252;2022-09-09T02:15:30;3.17;;;1.40;;
37407;SDS011;24866;50.248;8.252;2022-09-09T02:18:06;3.63;;;1.20;;
37407;SDS011;24866;50.248;8.252;2022-09-09T02:20:38;5.32;;;1.35;;
37407;SDS011;24866;50.248;8.252;2022-09-09T02:23:08;4.50;;;1.70;;
37407;SDS011;24866;50.248;8.252;2022-09-09T02:25:40;4.07;;;1.30;;
37407;SDS011;24866;50.248;8.252;2022-09-09T02:28:13;4.20;;;1.30;;
37407;SDS011;24866;50.248;8.252;2022-09-09T02:30:45;7.75;;;1.27;;
37407;SDS011;24866;50.248;8.252;2022-09-09T02:33:23;4.20;;;1.30;;
37407;SDS011;24866;50.248;8.252;2022-09-09T02:35:56;5.13;;;1.38;;
37407;SDS011;24866;50.248;8.252;2022-09-09T02:38:33;5.63;;;1.48;;
37407;SDS011;24866;50.248;8.252;2022-09-09T02:41:07;3.90;;;1.20;;
37407;SDS011;24866;50.248;8.252;2022-09-09T02:43:39;3.20;;;1.35;;
37407;SDS011;24866;50.248;8.252;2022-09-09T02:46:14;5.70;;;1.90;;
37407;SDS011;24866;50.248;8.252;2022-09-09T02:48:55;3.65;;;1.83;;
37407;SDS011;24866;50.248;8.252;2022-09-09T02:51:30;7.75;;;1.92;;
37407;SDS011;24866;50.248;8.252;2022-09-09T02:54:10;3.67;;;1.38;;
37407;SDS011;24866;50.248;8.252;2022-09-09T02:56:47;7.03;;;1.80;;
37407;SDS011;24866;50.248;8.252;2022-09-09T02:59:22;5.60;;;1.50;;
37407;SDS011;24866;50.248;8.252;2022-09-09T03:01:54;9.02;;;1.98;;
37407;SDS011;24866;50.248;8.252;2022-09-09T03:04:24;3.72;;;1.45;;
37407;SDS011;24866;50.248;8.252;2022-09-09T03:06:54;10.35;;;1.88;;
37407;SDS011;24866;50.248;8.252;2022-09-09T03:09:23;5.03;;;1.73;;
37407;SDS011;24866;50.248;8.252;2022-09-09T03:11:54;7.07;;;1.90;;
37407;SDS011;24866;50.248;8.252;2022-09-09T03:14:25;3.90;;;1.40;;
37407;SDS011;24866;50.248;8.252;2022-09-09T03:16:55;4.95;;;1.50;;
37407;SDS011;24866;50.248;8.252;2022-09-09T03:19:26;5.10;;;1.80;;
37407;SDS011;24866;50.248;8.252;2022-09-09T03:21:58;5.17;;;1.60;;
37407;SDS011;24866;50.248;8.252;2022-09-09T03:24:28;5.28;;;1.25;;
37407;SDS011;24866;50.248;8.252;2022-09-09T03:26:58;4.95;;;1.55;;
37407;SDS011;24866;50.248;8.252;2022-09-09T03:29:29;4.85;;;1.38;;
37407;SDS011;24866;50.248;8.252;2022-09-09T03:31:59;5.38;;;1.45;;
37407;SDS011;24866;50.248;8.252;2022-09-09T03:34:29;5.28;;;1.60;;
37407;SDS011;24866;50.248;8.252;2022-09-09T03:36:59;5.90;;;1.92;;
37407;SDS011;24866;50.248;8.252;2022-09-09T03:39:29;5.28;;;1.60;;
37407;SDS011;24866;50.248;8.252;2022-09-09T03:41:59;7.05;;;1.45;;
37407;SDS011;24866;50.248;8.252;2022-09-09T03:44:33;5.13;;;1.42;;
37407;SDS011;24866;50.248;8.252;2022-09-09T03:47:03;6.75;;;1.67;;
37407;SDS011;24866;50.248;8.252;2022-09-09T03:49:34;2.72;;;1.25;;
37407;SDS011;24866;50.248;8.252;2022-09-09T03:52:04;5.85;;;1.60;;
37407;SDS011;24866;50.248;8.252;2022-09-09T03:54:34;4.53;;;1.40;;
37407;SDS011;24866;50.248;8.252;2022-09-09T03:57:04;9.05;;;1.33;;
37407;SDS011;24866;50.248;8.252;2022-09-09T03:59:35;4.75;;;1.95;;
37407;SDS011;24866;50.248;8.252;2022-09-09T04:02:06;6.90;;;1.30;;
37407;SDS011;24866;50.248;8.252;2022-09-09T04:04:37;3.78;;;1.42;;
37407;SDS011;24866;50.248;8.252;2022-09-09T04:07:07;6.10;;;1.55;;
37407;SDS011;24866;50.248;8.252;2022-09-09T04:09:38;4.18;;;1.05;;
37407;SDS011;24866;50.248;8.252;2022-09-09T04:12:07;4.00;;;1.60;;
37407;SDS011;24866;50.248;8.252;2022-09-09T04:14:40;4.60;;;1.27;;
37407;SDS011;24866;50.248;8.252;2022-09-09T04:17:10;6.05;;;1.77;;
37407;SDS011;24866;50.248;8.252;2022-09-09T04:19:40;4.22;;;1.58;;
37407;SDS011;24866;50.248;8.252;2022-09-09T04:22:10;3.95;;;1.23;;
37407;SDS011;24866;50.248;8.252;2022-09-09T04:24:40;3.65;;;1.50;;
37407;SDS011;24866;50.248;8.252;2022-09-09T04:27:10;5.55;;;1.58;;
37407;SDS011;24866;50.248;8.252;2022-09-09T04:29:41;7.65;;;1.42;;
37407;SDS011;24866;50.248;8.252;2022-09-09T04:32:11;7.13;;;1.80;;
37407;SDS011;24866;50.248;8.252;2022-09-09T04:34:41;3.55;;;1.35;;
37407;SDS011;24866;50.248;8.252;2022-09-09T04:37:12;3.97;;;1.73;;
37407;SDS011;24866;50.248;8.252;2022-09-09T04:39:42;4.75;;;1.48;;
37407;SDS011;24866;50.248;8.252;2022-09-09T04:42:13;6.93;;;1.55;;
37407;SDS011;24866;50.248;8.252;2022-09-09T04:44:45;5.38;;;1.65;;
37407;SDS011;24866;50.248;8.252;2022-09-09T04:47:15;8.27;;;1.73;;
37407;SDS011;24866;50.248;8.252;2022-09-09T04:49:45;2.28;;;1.02;;
37407;SDS011;24866;50.248;8.252;2022-09-09T04:52:15;5.65;;;1.67;;
37407;SDS011;24866;50.248;8.252;2022-09-09T04:54:45;5.75;;;1.40;;
37407;SDS011;24866;50.248;8.252;2022-09-09T04:57:16;8.57;;;1.75;;
37407;SDS011;24866;50.248;8.252;2022-09-09T04:59:47;5.47;;;1.48;;
37407;SDS011;24866;50.248;8.252;2022-09-09T05:02:17;5.57;;;1.60;;
37407;SDS011;24866;50.248;8.252;2022-09-09T05:04:46;3.15;;;1.63;;
37407;SDS011;24866;50.248;8.252;2022-09-09T05:07:17;5.05;;;1.75;;
37407;SDS011;24866;50.248;8.252;2022-09-09T05:09:47;4.80;;;1.70;;
37407;SDS011;24866;50.248;8.252;2022-09-09T05:12:18;5.40;;;1.80;;
37407;SDS011;24866;50.248;8.252;2022-09-09T05:14:49;5.43;;;2.00;;
37407;SDS011;24866;50.248;8.252;2022-09-09T05:17:19;5.47;;;1.30;;
37407;SDS011;24866;50.248;8.252;2022-09-09T05:19:49;4.43;;;1.70;;
37407;SDS011;24866;50.248;8.252;2022-09-09T05:22:19;5.07;;;2.10;;
37407;SDS011;24866;50.248;8.252;2022-09-09T05:24:49;5.55;;;2.10;;
37407;SDS011;24866;50.248;8.252;2022-09-09T05:27:19;5.82;;;2.10;;
37407;SDS011;24866;50.248;8.252;2022-09-09T05:29:51;6.00;;;2.28;;
37407;SDS011;24866;50.248;8.252;2022-09-09T05:32:21;3.83;;;1.73;;
37407;SDS011;24866;50.248;8.252;2022-09-09T05:34:50;5.22;;;2.05;;
37407;SDS011;24866;50.248;8.252;2022-09-09T05:37:20;6.25;;;2.30;;
37407;SDS011;24866;50.248;8.252;2022-09-09T05:39:51;6.35;;;2.15;;
37407;SDS011;24866;50.248;8.252;2022-09-09T05:42:21;6.10;;;2.15;;
37407;SDS011;24866;50.248;8.252;2022-09-09T05:44:53;5.97;;;2.05;;
37407;SDS011;24866;50.248;8.252;2022-09-09T05:47:23;5.63;;;2.00;;
37407;SDS011;24866;50.248;8.252;2022-09-09T05:49:55;3.72;;;1.85;;
37407;SDS011;24866;50.248;8.252;2022-09-09T05:52:25;3.35;;;1.75;;
37407;SDS011;24866;50.248;8.252;2022-09-09T05:54:55;6.82;;;2.47;;
37407;SDS011;24866;50.248;8.252;2022-09-09T05:57:25;7.25;;;2.80;;
37407;SDS011;24866;50.248;8.252;2022-09-09T05:59:56;5.25;;;1.70;;
37407;SDS011;24866;50.248;8.252;2022-09-09T06:02:26;4.18;;;2.20;;
37407;SDS011;24866;50.248;8.252;2022-09-09T06:04:56;6.63;;;1.98;;
37407;SDS011;24866;50.248;8.252;2022-09-09T06:07:26;5.35;;;1.90;;
37407;SDS011;24866;50.248;8.252;2022-09-09T06:09:55;8.07;;;2.17;;
37407;SDS011;24866;50.248;8.252;2022-09-09T06:12:27;6.28;;;2.05;;
37407;SDS011;24866;50.248;8.252;2022-09-09T06:14:58;5.82;;;1.88;;
37407;SDS011;24866;50.248;8.252;2022-09-09T06:17:28;4.88;;;2.20;;
37407;SDS011;24866;50.248;8.252;2022-09-09T06:19:58;5.47;;;1.90;;
37407;SDS011;24866;50.248;8.252;2022-09-09T06:22:27;4.97;;;1.85;;
37407;SDS011;24866;50.248;8.252;2022-09-09T06:24:58;7.25;;;2.05;;
37407;SDS011;24866;50.248;8.252;2022-09-09T06:27:29;5.07;;;1.90;;
37407;SDS011;24866;50.248;8.252;2022-09-09T06:30:00;3.60;;;2.08;;
37407;SDS011;24866;50.248;8.252;2022-09-09T06:32:31;7.43;;;2.27;;
37407;SDS011;24866;50.248;8.252;2022-09-09T06:35:03;4.55;;;1.75;;
37407;SDS011;24866;50.248;8.252;2022-09-09T06:37:34;4.85;;;1.38;;
37407;SDS011;24866;50.248;8.252;2022-09-09T06:40:05;5.03;;;2.00;;
37407;SDS011;24866;50.248;8.252;2022-09-09T06:42:35;6.07;;;2.30;;
37407;SDS011;24866;50.248;8.252;2022-09-09T06:45:09;5.38;;;1.75;;
37407;SDS011;24866;50.248;8.252;2022-09-09T06:47:39;5.63;;;1.40;;
37407;SDS011;24866;50.248;8.252;2022-09-09T06:50:09;5.50;;;1.83;;
37407;SDS011;24866;50.248;8.252;2022-09-09T06:52:39;6.40;;;1.70;;
37407;SDS011;24866;50.248;8.252;2022-09-09T06:55:09;6.55;;;1.60;;
37407;SDS011;24866;50.248;8.252;2022-09-09T06:57:39;6.15;;;1.38;;
37407;SDS011;24866;50.248;8.252;2022-09-09T07:00:11;4.43;;;1.45;;
37407;SDS011;24866;50.248;8.252;2022-09-09T07:05:12;3.75;;;1.52;;
37407;SDS011;24866;50.248;8.252;2022-09-09T07:07:43;4.53;;;1.67;;
37407;SDS011;24866;50.248;8.252;2022-09-09T07:10:13;5.60;;;1.90;;
37407;SDS011;24866;50.248;8.252;2022-09-09T07:12:43;5.13;;;1.77;;
37407;SDS011;24866;50.248;8.252;2022-09-09T07:15:14;5.05;;;1.40;;
37407;SDS011;24866;50.248;8.252;2022-09-09T07:17:44;4.03;;;1.67;;
37407;SDS011;24866;50.248;8.252;2022-09-09T07:20:14;4.43;;;1.60;;
37407;SDS011;24866;50.248;8.252;2022-09-09T07:22:44;8.18;;;2.17;;
37407;SDS011;24866;50.248;8.252;2022-09-09T07:25:15;5.70;;;1.90;;
37407;SDS011;24866;50.248;8.252;2022-09-09T07:27:46;4.47;;;1.90;;
37407;SDS011;24866;50.248;8.252;2022-09-09T07:30:18;4.97;;;1.80;;
37407;SDS011;24866;50.248;8.252;2022-09-09T07:32:47;4.47;;;1.60;;
37407;SDS011;24866;50.248;8.252;2022-09-09T07:35:19;4.47;;;2.27;;
37407;SDS011;24866;50.248;8.252;2022-09-09T07:37:50;5.75;;;1.95;;
37407;SDS011;24866;50.248;8.252;2022-09-09T07:40:20;6.70;;;2.13;;
37407;SDS011;24866;50.248;8.252;2022-09-09T07:42:50;7.03;;;2.28;;
37407;SDS011;24866;50.248;8.252;2022-09-09T07:45:21;11.55;;;3.42;;
37407;SDS011;24866;50.248;8.252;2022-09-09T07:47:51;5.05;;;1.80;;
37407;SDS011;24866;50.248;8.252;2022-09-09T07:50:21;6.75;;;2.47;;
37407;SDS011;24866;50.248;8.252;2022-09-09T07:52:51;10.75;;;2.53;;
37407;SDS011;24866;50.248;8.252;2022-09-09T07:55:22;5.70;;;2.53;;
37407;SDS011;24866;50.248;8.252;2022-09-09T07:57:53;4.55;;;2.40;;
37407;SDS011;24866;50.248;8.252;2022-09-09T08:00:26;7.07;;;1.85;;
37407;SDS011;24866;50.248;8.252;2022-09-09T08:02:56;7.25;;;2.25;;
37407;SDS011;24866;50.248;8.252;2022-09-09T08:05:26;5.43;;;1.90;;
37407;SDS011;24866;50.248;8.252;2022-09-09T08:07:56;3.53;;;1.70;;
37407;SDS011;24866;50.248;8.252;2022-09-09T08:10:26;7.22;;;1.80;;
37407;SDS011;24866;50.248;8.252;2022-09-09T08:12:56;3.92;;;1.55;;
37407;SDS011;24866;50.248;8.252;2022-09-09T08:15:27;3.08;;;1.98;;
37407;SDS011;24866;50.248;8.252;2022-09-09T08:17:58;8.70;;;2.20;;
37407;SDS011;24866;50.248;8.252;2022-09-09T08:20:28;6.38;;;2.22;;
37407;SDS011;24866;50.248;8.252;2022-09-09T08:22:58;6.55;;;1.90;;
37407;SDS011;24866;50.248;8.252;2022-09-09T08:25:28;7.35;;;2.90;;
37407;SDS011;24866;50.248;8.252;2022-09-09T08:27:58;7.90;;;1.85;;
37407;SDS011;24866;50.248;8.252;2022-09-09T08:30:29;5.88;;;2.17;;
37407;SDS011;24866;50.248;8.252;2022-09-09T08:32:59;6.15;;;2.05;;
37407;SDS011;24866;50.248;8.252;2022-09-09T08:35:29;6.28;;;1.63;;
37407;SDS011;24866;50.248;8.252;2022-09-09T08:38:00;9.30;;;1.70;;
37407;SDS011;24866;50.248;8.252;2022-09-09T08:40:32;6.70;;;2.03;;
37407;SDS011;24866;50.248;8.252;2022-09-09T08:43:07;13.48;;;2.00;;
37407;SDS011;24866;50.248;8.252;2022-09-09T08:45:41;4.78;;;1.67;;
37407;SDS011;24866;50.248;8.252;2022-09-09T08:48:22;5.10;;;1.75;;
37407;SDS011;24866;50.248;8.252;2022-09-09T08:51:09;4.75;;;1.35;;
37407;SDS011;24866;50.248;8.252;2022-09-09T08:53:41;6.68;;;1.55;;
37407;SDS011;24866;50.248;8.252;2022-09-09T08:56:15;8.90;;;2.15;;
37407;SDS011;24866;50.248;8.252;2022-09-09T08:58:48;7.20;;;1.95;;
37407;SDS011;24866;50.248;8.252;2022-09-09T09:01:25;5.95;;;1.65;;
37407;SDS011;24866;50.248;8.252;2022-09-09T09:04:13;5.25;;;1.55;;
37407;SDS011;24866;50.248;8.252;2022-09-09T09:07:00;5.65;;;1.40;;
37407;SDS011;24866;50.248;8.252;2022-09-09T09:09:38;7.80;;;1.50;;
37407;SDS011;24866;50.248;8.252;2022-09-09T09:12:22;6.93;;;1.83;;
37407;SDS011;24866;50.248;8.252;2022-09-09T09:14:54;9.43;;;1.83;;
37407;SDS011;24866;50.248;8.252;2022-09-09T09:20:01;6.75;;;1.65;;
37407;SDS011;24866;50.248;8.252;2022-09-09T09:22:37;5.03;;;1.88;;
37407;SDS011;24866;50.248;8.252;2022-09-09T09:25:14;5.90;;;1.60;;
37407;SDS011;24866;50.248;8.252;2022-09-09T09:27:49;7.88;;;2.67;;
37407;SDS011;24866;50.248;8.252;2022-09-09T09:30:29;9.20;;;1.90;;
37407;SDS011;24866;50.248;8.252;2022-09-09T09:33:08;8.52;;;2.35;;
37407;SDS011;24866;50.248;8.252;2022-09-09T09:35:44;6.78;;;1.55;;
37407;SDS011;24866;50.248;8.252;2022-09-09T09:38:16;10.00;;;1.60;;
37407;SDS011;24866;50.248;8.252;2022-09-09T09:40:48;5.03;;;1.60;;
37407;SDS011;24866;50.248;8.252;2022-09-09T09:43:20;6.33;;;1.47;;
37407;SDS011;24866;50.248;8.252;2022-09-09T09:45:53;8.95;;;1.95;;
37407;SDS011;24866;50.248;8.252;2022-09-09T09:48:27;5.80;;;1.73;;
37407;SDS011;24866;50.248;8.252;2022-09-09T09:51:01;4.00;;;1.30;;
37407;SDS011;24866;50.248;8.252;2022-09-09T09:53:36;6.28;;;1.77;;
37407;SDS011;24866;50.248;8.252;2022-09-09T09:56:08;7.45;;;1.52;;
37407;SDS011;24866;50.248;8.252;2022-09-09T09:58:47;4.80;;;1.40;;
37407;SDS011;24866;50.248;8.252;2022-09-09T10:01:20;4.88;;;1.48;;
37407;SDS011;24866;50.248;8.252;2022-09-09T10:03:57;5.40;;;1.48;;
37407;SDS011;24866;50.248;8.252;2022-09-09T10:06:29;4.45;;;0.98;;
37407;SDS011;24866;50.248;8.252;2022-09-09T10:09:01;3.85;;;1.15;;
37407;SDS011;24866;50.248;8.252;2022-09-09T10:11:36;5.10;;;1.10;;
37407;SDS011;24866;50.248;8.252;2022-09-09T10:14:15;5.45;;;1.40;;
37407;SDS011;24866;50.248;8.252;2022-09-09T10:16:52;6.45;;;1.30;;
37407;SDS011;24866;50.248;8.252;2022-09-09T10:19:34;5.00;;;1.10;;
37407;SDS011;24866;50.248;8.252;2022-09-09T10:22:14;6.40;;;1.00;;
37407;SDS011;24866;50.248;8.252;2022-09-09T10:31:01;5.13;;;1.15;;
37407;SDS011;24866;50.248;8.252;2022-09-09T10:33:43;4.67;;;1.10;;
37407;SDS011;24866;50.248;8.252;2022-09-09T10:36:20;4.93;;;1.00;;
37407;SDS011;24866;50.248;8.252;2022-09-09T10:38:53;5.68;;;1.38;;
37407;SDS011;24866;50.248;8.252;2022-09-09T10:41:33;5.45;;;1.40;;
37407;SDS011;24866;50.248;8.252;2022-09-09T10:44:15;7.00;;;1.33;;
37407;SDS011;24866;50.248;8.252;2022-09-09T10:47:00;4.43;;;1.20;;
37407;SDS011;24866;50.248;8.252;2022-09-09T10:49:53;5.97;;;1.20;;
37407;SDS011;24866;50.248;8.252;2022-09-09T10:52:42;4.70;;;0.70;;
37407;SDS011;24866;50.248;8.252;2022-09-09T10:55:23;4.45;;;1.00;;
37407;SDS011;24866;50.248;8.252;2022-09-09T10:57:56;3.75;;;0.88;;
37407;SDS011;24866;50.248;8.252;2022-09-09T11:00:32;3.42;;;0.88;;
37407;SDS011;24866;50.248;8.252;2022-09-09T11:03:10;3.63;;;1.05;;
37407;SDS011;24866;50.248;8.252;2022-09-09T11:05:49;7.45;;;1.08;;
37407;SDS011;24866;50.248;8.252;2022-09-09T11:08:24;8.68;;;0.77;;
37407;SDS011;24866;50.248;8.252;2022-09-09T11:10:58;8.77;;;0.90;;
37407;SDS011;24866;50.248;8.252;2022-09-09T11:13:33;2.97;;;0.50;;
37407;SDS011;24866;50.248;8.252;2022-09-09T11:16:14;2.47;;;0.55;;
37407;SDS011;24866;50.248;8.252;2022-09-09T11:18:52;3.33;;;0.60;;
37407;SDS011;24866;50.248;8.252;2022-09-09T11:21:27;4.47;;;1.00;;
37407;SDS011;24866;50.248;8.252;2022-09-09T11:24:02;4.15;;;0.85;;
37407;SDS011;24866;50.248;8.252;2022-09-09T11:26:38;6.13;;;0.98;;
37407;SDS011;24866;50.248;8.252;2022-09-09T11:29:22;7.32;;;0.73;;
37407;SDS011;24866;50.248;8.252;2022-09-09T11:32:09;4.30;;;0.80;;
37407;SDS011;24866;50.248;8.252;2022-09-09T11:34:59;3.45;;;0.90;;
37407;SDS011;24866;50.248;8.252;2022-09-09T11:37:40;2.22;;;0.52;;
37407;SDS011;24866;50.248;8.252;2022-09-09T11:40:29;3.53;;;0.70;;
37407;SDS011;24866;50.248;8.252;2022-09-09T11:45:33;6.03;;;0.98;;
37407;SDS011;24866;50.248;8.252;2022-09-09T11:48:04;3.35;;;0.80;;
37407;SDS011;24866;50.248;8.252;2022-09-09T11:50:58;5.50;;;1.00;;
37407;SDS011;24866;50.248;8.252;2022-09-09T11:53:31;3.65;;;1.10;;
37407;SDS011;24866;50.248;8.252;2022-09-09T11:56:04;3.65;;;0.80;;
37407;SDS011;24866;50.248;8.252;2022-09-09T11:58:37;4.22;;;1.23;;
37407;SDS011;24866;50.248;8.252;2022-09-09T12:01:13;3.33;;;0.70;;
37407;SDS011;24866;50.248;8.252;2022-09-09T12:04:05;5.32;;;0.60;;
37407;SDS011;24866;50.248;8.252;2022-09-09T12:06:42;2.97;;;0.63;;
37407;SDS011;24866;50.248;8.252;2022-09-09T12:09:17;4.60;;;1.00;;
37407;SDS011;24866;50.248;8.252;2022-09-09T12:11:53;6.57;;;1.40;;
37407;SDS011;24866;50.248;8.252;2022-09-09T12:17:09;4.78;;;0.80;;
37407;SDS011;24866;50.248;8.252;2022-09-09T12:19:48;4.75;;;1.20;;
37407;SDS011;24866;50.248;8.252;2022-09-09T12:22:34;6.65;;;1.25;;
37407;SDS011;24866;50.248;8.252;2022-09-09T12:25:12;5.28;;;1.23;;
37407;SDS011;24866;50.248;8.252;2022-09-09T12:30:30;3.53;;;0.75;;
37407;SDS011;24866;50.248;8.252;2022-09-09T12:33:08;5.40;;;1.02;;
37407;SDS011;24866;50.248;8.252;2022-09-09T12:35:41;5.38;;;0.75;;
37407;SDS011;24866;50.248;8.252;2022-09-09T12:40:53;2.88;;;0.70;;
37407;SDS011;24866;50.248;8.252;2022-09-09T12:43:27;5.38;;;0.80;;
37407;SDS011;24866;50.248;8.252;2022-09-09T12:45:59;3.38;;;0.77;;
37407;SDS011;24866;50.248;8.252;2022-09-09T12:48:33;2.70;;;0.70;;
37407;SDS011;24866;50.248;8.252;2022-09-09T12:51:06;6.72;;;0.68;;
37407;SDS011;24866;50.248;8.252;2022-09-09T12:53:47;3.33;;;0.43;;
37407;SDS011;24866;50.248;8.252;2022-09-09T12:56:18;3.20;;;0.57;;
37407;SDS011;24866;50.248;8.252;2022-09-09T12:58:52;2.92;;;0.60;;
37407;SDS011;24866;50.248;8.252;2022-09-09T13:01:25;5.63;;;0.73;;
37407;SDS011;24866;50.248;8.252;2022-09-09T13:03:56;1.45;;;0.50;;
37407;SDS011;24866;50.248;8.252;2022-09-09T13:06:27;4.00;;;0.80;;
37407;SDS011;24866;50.248;8.252;2022-09-09T13:08:59;3.75;;;0.70;;
37407;SDS011;24866;50.248;8.252;2022-09-09T13:11:32;2.95;;;0.75;;
37407;SDS011;24866;50.248;8.252;2022-09-09T13:14:13;3.67;;;0.57;;
37407;SDS011;24866;50.248;8.252;2022-09-09T13:16:54;3.92;;;0.70;;
37407;SDS011;24866;50.248;8.252;2022-09-09T13:19:26;5.78;;;0.90;;
37407;SDS011;24866;50.248;8.252;2022-09-09T13:22:11;8.07;;;0.80;;
37407;SDS011;24866;50.248;8.252;2022-09-09T13:24:42;3.80;;;0.57;;
37407;SDS011;24866;50.248;8.252;2022-09-09T13:27:24;2.13;;;0.80;;
37407;SDS011;24866;50.248;8.252;2022-09-09T13:29:58;4.95;;;0.73;;
37407;SDS011;24866;50.248;8.252;2022-09-09T13:32:29;4.20;;;1.20;;
37407;SDS011;24866;50.248;8.252;2022-09-09T13:35:00;3.40;;;0.50;;
37407;SDS011;24866;50.248;8.252;2022-09-09T13:37:32;1.00;;;0.40;;
37407;SDS011;24866;50.248;8.252;2022-09-09T13:40:04;6.10;;;0.70;;
37407;SDS011;24866;50.248;8.252;2022-09-09T13:42:37;3.27;;;0.70;;
37407;SDS011;24866;50.248;8.252;2022-09-09T13:45:16;2.05;;;0.47;;
37407;SDS011;24866;50.248;8.252;2022-09-09T13:47:49;3.95;;;0.82;;
37407;SDS011;24866;50.248;8.252;2022-09-09T13:50:24;4.18;;;0.88;;
37407;SDS011;24866;50.248;8.252;2022-09-09T13:55:27;4.20;;;0.98;;
37407;SDS011;24866;50.248;8.252;2022-09-09T13:57:59;3.05;;;0.70;;
37407;SDS011;24866;50.248;8.252;2022-09-09T14:00:32;2.33;;;0.50;;
37407;SDS011;24866;50.248;8.252;2022-09-09T14:03:03;1.50;;;0.38;;
37407;SDS011;24866;50.248;8.252;2022-09-09T14:05:33;3.05;;;0.68;;
37407;SDS011;24866;50.248;8.252;2022-09-09T14:08:03;2.88;;;0.90;;
37407;SDS011;24866;50.248;8.252;2022-09-09T14:10:33;4.25;;;0.70;;
37407;SDS011;24866;50.248;8.252;2022-09-09T14:13:05;2.65;;;0.52;;
37407;SDS011;24866;50.248;8.252;2022-09-09T14:15:37;3.08;;;0.70;;
37407;SDS011;24866;50.248;8.252;2022-09-09T14:18:08;4.22;;;0.90;;
37407;SDS011;24866;50.248;8.252;2022-09-09T14:20:40;4.75;;;0.80;;
37407;SDS011;24866;50.248;8.252;2022-09-09T14:23:11;4.30;;;0.95;;
37407;SDS011;24866;50.248;8.252;2022-09-09T14:25:42;2.90;;;0.70;;
37407;SDS011;24866;50.248;8.252;2022-09-09T14:28:12;4.57;;;1.02;;
37407;SDS011;24866;50.248;8.252;2022-09-09T14:30:44;6.18;;;1.25;;
37407;SDS011;24866;50.248;8.252;2022-09-09T14:33:15;2.38;;;0.50;;
37407;SDS011;24866;50.248;8.252;2022-09-09T14:35:45;4.57;;;1.00;;
37407;SDS011;24866;50.248;8.252;2022-09-09T14:38:15;6.75;;;1.15;;
37407;SDS011;24866;50.248;8.252;2022-09-09T14:40:45;5.10;;;1.13;;
37407;SDS011;24866;50.248;8.252;2022-09-09T14:43:15;4.10;;;0.93;;
37407;SDS011;24866;50.248;8.252;2022-09-09T14:45:47;4.40;;;1.00;;
37407;SDS011;24866;50.248;8.252;2022-09-09T14:48:19;3.13;;;0.55;;
37407;SDS011;24866;50.248;8.252;2022-09-09T14:50:49;3.80;;;0.88;;
37407;SDS011;24866;50.248;8.252;2022-09-09T14:53:19;4.10;;;0.80;;
37407;SDS011;24866;50.248;8.252;2022-09-09T14:55:49;4.03;;;0.85;;
37407;SDS011;24866;50.248;8.252;2022-09-09T14:58:19;6.07;;;1.10;;
37407;SDS011;24866;50.248;8.252;2022-09-09T15:00:51;7.03;;;1.20;;
37407;SDS011;24866;50.248;8.252;2022-09-09T15:03:21;3.90;;;0.90;;
37407;SDS011;24866;50.248;8.252;2022-09-09T15:05:51;3.90;;;1.00;;
37407;SDS011;24866;50.248;8.252;2022-09-09T15:08:21;7.63;;;1.20;;
37407;SDS011;24866;50.248;8.252;2022-09-09T15:10:51;4.50;;;1.08;;
37407;SDS011;24866;50.248;8.252;2022-09-09T15:13:28;5.65;;;0.88;;
37407;SDS011;24866;50.248;8.252;2022-09-09T15:16:04;3.42;;;1.10;;
37407;SDS011;24866;50.248;8.252;2022-09-09T15:18:35;5.05;;;1.00;;
37407;SDS011;24866;50.248;8.252;2022-09-09T15:21:08;3.92;;;0.70;;
37407;SDS011;24866;50.248;8.252;2022-09-09T15:23:39;2.90;;;0.93;;
37407;SDS011;24866;50.248;8.252;2022-09-09T15:26:09;7.65;;;0.90;;
37407;SDS011;24866;50.248;8.252;2022-09-09T15:28:39;1.95;;;0.75;;
37407;SDS011;24866;50.248;8.252;2022-09-09T15:31:14;4.07;;;1.08;;
37407;SDS011;24866;50.248;8.252;2022-09-09T15:33:48;4.72;;;0.90;;
37407;SDS011;24866;50.248;8.252;2022-09-09T15:36:20;4.63;;;0.77;;
37407;SDS011;24866;50.248;8.252;2022-09-09T15:38:51;5.18;;;0.70;;
37407;SDS011;24866;50.248;8.252;2022-09-09T15:41:22;4.75;;;0.70;;
37407;SDS011;24866;50.248;8.252;2022-09-09T15:43:52;3.85;;;0.90;;
37407;SDS011;24866;50.248;8.252;2022-09-09T15:46:27;2.78;;;1.00;;
37407;SDS011;24866;50.248;8.252;2022-09-09T15:49:03;2.75;;;0.80;;
37407;SDS011;24866;50.248;8.252;2022-09-09T15:51:34;2.60;;;0.68;;
37407;SDS011;24866;50.248;8.252;2022-09-09T15:54:05;2.42;;;0.70;;